Time;durP1;ratioP1;P1;durP2;ratioP2;P2;SDS_P1;SDS_P2;PMS_P1;PMS_P2;Temp;Humidity;BMP_temperature;BMP_pressure;BME280_temperature;BME280_humidity;BME280_pressure;Samples;Min_cycle;Max_cycle;Signal;HPM_P1;HPM_P2
2023/12/13 00:00:30;;;;;;;1.20;0.75;;;;;;;10.56;77.49;98205.41;5079622;28;20192;-79
2023/12/13 00:02:55;;;;;;;1.10;0.90;;;;;;;10.55;77.68;98199.31;5082374;28;20197;-79
2023/12/13 00:05:20;;;;;;;1.20;0.90;;;;;;;10.55;77.65;98201.09;5080879;28;20205;-78
2023/12/13 00:07:46;;;;;;;1.23;0.90;;;;;;;10.56;77.75;98202.78;5082796;28;20429;-78
2023/12/13 00:10:11;;;;;;;1.40;1.00;;;;;;;10.57;77.79;98192.13;5080695;28;20299;-78
2023/12/13 00:12:37;;;;;;;1.17;0.90;;;;;;;10.58;77.90;98192.97;5084074;28;20265;-79
2023/12/13 00:15:03;;;;;;;1.20;1.10;;;;;;;10.60;78.10;98198.91;5083805;28;20225;-79
2023/12/13 00:17:28;;;;;;;1.73;1.10;;;;;;;10.62;78.04;98191.75;5083941;28;20193;-79
2023/12/13 00:19:53;;;;;;;1.10;1.00;;;;;;;10.63;78.25;98196.84;5087396;28;20462;-79
2023/12/13 00:22:19;;;;;;;2.73;0.97;;;;;;;10.67;78.59;98191.34;5092102;28;20204;-79
2023/12/13 00:24:44;;;;;;;1.37;0.70;;;;;;;10.69;78.65;98189.41;5085118;28;20556;-79
2023/12/13 00:27:10;;;;;;;1.13;0.80;;;;;;;10.72;78.75;98190.00;5088517;28;20230;-79
2023/12/13 00:29:35;;;;;;;4.63;1.17;;;;;;;10.74;78.79;98184.59;5084465;28;20413;-79
2023/12/13 00:32:01;;;;;;;0.80;0.70;;;;;;;10.77;78.80;98181.69;5090343;28;20397;-79
2023/12/13 00:34:26;;;;;;;1.30;0.80;;;;;;;10.78;78.73;98181.56;5088716;28;20219;-80
2023/12/13 00:36:54;;;;;;;1.33;0.80;;;;;;;10.80;78.94;98176.16;5090400;28;20201;-79
2023/12/13 00:39:20;;;;;;;1.43;0.90;;;;;;;10.82;78.89;98174.25;5091002;28;20840;-79
2023/12/13 00:41:45;;;;;;;2.07;1.23;;;;;;;10.84;79.14;98167.88;5088959;28;20286;-79
2023/12/13 00:44:11;;;;;;;4.60;0.90;;;;;;;10.87;79.14;98163.34;5091067;28;20208;-79
2023/12/13 00:46:36;;;;;;;1.43;1.00;;;;;;;10.88;79.21;98165.81;5091872;28;20208;-79
2023/12/13 00:49:02;;;;;;;2.30;0.90;;;;;;;10.90;79.27;98156.00;5091474;28;20201;-79
2023/12/13 00:51:28;;;;;;;0.90;0.90;;;;;;;10.92;78.97;98153.25;5091580;28;20197;-79
2023/12/13 00:53:54;;;;;;;1.38;1.27;;;;;;;10.94;79.22;98157.41;5091807;28;20196;-79
2023/12/13 00:56:19;;;;;;;1.40;1.30;;;;;;;10.97;79.14;98162.41;5092226;28;20270;-79
2023/12/13 00:58:47;;;;;;;3.07;0.83;;;;;;;10.98;79.16;98160.59;5091344;28;20242;-79
2023/12/13 01:01:13;;;;;;;1.00;0.88;;;;;;;11.00;79.23;98148.16;5091537;28;20274;-79
2023/12/13 01:03:38;;;;;;;1.65;1.02;;;;;;;11.01;79.16;98148.00;5087264;28;20204;-79
2023/12/13 01:06:09;;;;;;;0.80;0.70;;;;;;;11.02;79.09;98146.22;5088847;28;20189;-79
2023/12/13 01:08:36;;;;;;;1.52;0.90;;;;;;;11.06;79.08;98139.72;5091268;28;20202;-79
2023/12/13 01:11:01;;;;;;;4.25;0.80;;;;;;;11.07;79.12;98146.63;5093056;28;20200;-79
2023/12/13 01:13:27;;;;;;;1.23;0.97;;;;;;;11.07;78.94;98142.22;5087009;28;20478;-79
2023/12/13 01:15:53;;;;;;;2.03;1.10;;;;;;;11.10;78.85;98150.78;5086810;28;20200;-79
2023/12/13 01:18:18;;;;;;;1.73;1.03;;;;;;;11.12;78.80;98149.69;5082815;28;20200;-79
2023/12/13 01:20:43;;;;;;;2.03;1.20;;;;;;;11.14;78.84;98147.75;5081659;28;20201;-79
2023/12/13 01:23:09;;;;;;;3.03;1.00;;;;;;;11.16;78.25;98137.94;5082402;28;20200;-78
2023/12/13 01:25:34;;;;;;;2.40;1.07;;;;;;;11.15;78.35;98146.81;5086528;28;20224;-79
2023/12/13 01:28:00;;;;;;;2.50;1.20;;;;;;;11.18;78.09;98148.28;5084644;28;20215;-79
2023/12/13 01:30:25;;;;;;;3.87;1.40;;;;;;;11.21;77.79;98150.69;5084807;28;20211;-79
2023/12/13 01:32:51;;;;;;;1.00;0.90;;;;;;;11.21;77.58;98148.88;5081183;28;20272;-79
2023/12/13 01:35:16;;;;;;;1.93;0.90;;;;;;;11.22;77.40;98152.31;5081806;28;20266;-78
2023/12/13 01:37:41;;;;;;;1.33;1.10;;;;;;;11.23;77.39;98156.59;5081154;28;20196;-79
2023/12/13 01:40:08;;;;;;;3.70;1.20;;;;;;;11.23;77.37;98162.72;5082935;28;20842;-78
2023/12/13 01:42:38;;;;;;;2.17;1.00;;;;;;;11.23;77.30;98157.47;5078604;28;20291;-78
2023/12/13 01:45:03;;;;;;;1.65;1.35;;;;;;;11.21;77.27;98159.38;5079017;28;20293;-78
2023/12/13 01:47:29;;;;;;;1.60;1.20;;;;;;;11.18;77.42;98157.03;5081029;28;20275;-79
2023/12/13 01:49:54;;;;;;;1.87;1.10;;;;;;;11.14;77.54;98158.25;5081899;28;20492;-78
2023/12/13 01:52:20;;;;;;;3.13;1.30;;;;;;;11.11;77.36;98147.22;5076400;28;20283;-78
2023/12/13 01:54:47;;;;;;;1.60;1.00;;;;;;;11.07;77.63;98142.22;5077482;28;20302;-77
2023/12/13 01:57:14;;;;;;;3.30;1.00;;;;;;;11.05;77.71;98143.31;5080227;28;20733;-77
2023/12/13 01:59:41;;;;;;;1.92;1.30;;;;;;;11.02;77.80;98138.34;5079640;28;20196;-77
2023/12/13 02:02:07;;;;;;;1.65;0.80;;;;;;;11.01;77.79;98134.88;5080489;28;20201;-77
2023/12/13 02:04:34;;;;;;;2.83;1.10;;;;;;;11.00;77.88;98127.13;5080783;28;20605;-78
2023/12/13 02:07:01;;;;;;;2.78;1.10;;;;;;;10.96;77.75;98129.19;5077441;28;20216;-78
2023/12/13 02:09:26;;;;;;;7.15;1.40;;;;;;;10.94;77.73;98130.31;5078538;28;20715;-77
2023/12/13 02:11:52;;;;;;;1.67;1.10;;;;;;;10.90;77.95;98128.91;5077119;28;20200;-77
2023/12/13 02:14:18;;;;;;;1.20;0.90;;;;;;;10.88;77.81;98130.84;5071559;28;20196;-77
2023/12/13 02:16:43;;;;;;;2.03;0.93;;;;;;;10.87;77.80;98135.28;5072418;28;20193;-77
2023/12/13 02:19:10;;;;;;;1.50;1.27;;;;;;;10.89;77.73;98127.28;5073771;28;20197;-77
2023/12/13 02:21:36;;;;;;;1.77;0.90;;;;;;;10.91;77.42;98122.69;5072309;28;20230;-77
2023/12/13 02:24:04;;;;;;;2.70;1.20;;;;;;;10.93;77.34;98123.38;5067965;28;20204;-77
2023/12/13 02:26:30;;;;;;;1.90;0.95;;;;;;;10.96;77.17;98112.59;5074485;28;20225;-77
2023/12/13 02:28:56;;;;;;;4.33;1.27;;;;;;;11.00;76.73;98119.25;5074741;28;20204;-77
2023/12/13 02:31:22;;;;;;;1.23;0.90;;;;;;;11.03;76.71;98101.41;5078930;28;20205;-77
2023/12/13 02:33:47;;;;;;;2.80;0.90;;;;;;;11.06;76.26;98098.50;5077375;28;20560;-77
2023/12/13 02:36:13;;;;;;;1.50;0.80;;;;;;;11.10;76.19;98098.22;5077705;28;20204;-77
2023/12/13 02:38:40;;;;;;;1.10;0.90;;;;;;;11.11;75.87;98095.47;5077038;28;20319;-77
2023/12/13 02:41:07;;;;;;;4.53;1.45;;;;;;;11.15;75.66;98085.50;5078220;28;20208;-77
2023/12/13 02:43:32;;;;;;;1.88;0.90;;;;;;;11.17;75.50;98079.16;5076656;28;20196;-77
2023/12/13 02:45:58;;;;;;;1.63;0.77;;;;;;;11.18;75.37;98075.56;5079055;28;20220;-77
2023/12/13 02:48:24;;;;;;;1.10;1.00;;;;;;;11.18;75.14;98070.31;5075525;28;20208;-77
2023/12/13 02:50:52;;;;;;;3.47;0.82;;;;;;;11.18;75.15;98067.69;5076954;28;21135;-77
2023/12/13 02:53:21;;;;;;;1.40;0.98;;;;;;;11.17;75.22;98063.38;5075850;28;20205;-77
2023/12/13 02:55:46;;;;;;;1.27;0.88;;;;;;;11.17;75.17;98052.03;5072302;28;20782;-77
2023/12/13 02:58:12;;;;;;;2.07;0.90;;;;;;;11.16;75.08;98059.09;5075217;28;20524;-77
2023/12/13 03:00:37;;;;;;;1.97;1.00;;;;;;;11.16;75.36;98050.41;5078282;28;20204;-78
2023/12/13 03:03:03;;;;;;;1.97;1.00;;;;;;;11.16;75.16;98059.09;5076632;28;20664;-78
2023/12/13 03:05:28;;;;;;;1.00;0.90;;;;;;;11.15;74.89;98044.31;5058315;28;20211;-78
2023/12/13 03:07:54;;;;;;;1.40;0.70;;;;;;;11.17;74.78;98036.28;5075943;28;20826;-78
2023/12/13 03:10:19;;;;;;;1.10;0.90;;;;;;;11.17;74.75;98042.34;5075858;28;20204;-77
2023/12/13 03:12:45;;;;;;;1.20;0.87;;;;;;;11.17;74.76;98047.59;5077872;28;20200;-77
2023/12/13 03:15:10;;;;;;;2.30;0.90;;;;;;;11.20;74.60;98046.50;5074405;28;20465;-77
2023/12/13 03:17:36;;;;;;;2.90;0.83;;;;;;;11.19;74.41;98040.41;5075678;28;20654;-77
2023/12/13 03:20:02;;;;;;;2.43;0.90;;;;;;;11.20;74.39;98034.19;5075736;28;20192;-77
2023/12/13 03:22:28;;;;;;;3.10;1.05;;;;;;;11.20;74.34;98023.66;5076750;28;20188;-77
2023/12/13 03:24:55;;;;;;;3.50;0.90;;;;;;;11.21;74.17;98022.72;5074168;28;20223;-77
2023/12/13 03:27:21;;;;;;;0.98;0.88;;;;;;;11.20;74.10;98010.53;5100419;22;21113;-91
2023/12/13 03:29:46;;;;;;;2.73;0.80;;;;;;;11.21;74.09;98020.09;5082964;28;20199;-92
2023/12/13 03:32:19;;;;;;;3.17;0.70;;;;;;;11.21;74.00;98011.38;5084404;28;20620;-91
2023/12/13 03:34:45;;;;;;;1.10;0.90;;;;;;;11.20;73.80;98007.91;5081369;28;20718;-91
2023/12/13 03:37:11;;;;;;;2.50;1.00;;;;;;;11.19;73.57;98001.00;5085406;28;20294;-91
2023/12/13 03:39:36;;;;;;;0.80;0.80;;;;;;;11.18;73.54;98004.59;5085688;28;21451;-92
2023/12/13 03:42:02;;;;;;;2.83;1.13;;;;;;;11.19;73.49;98002.81;5076746;28;20468;-91
2023/12/13 03:44:28;;;;;;;2.53;1.00;;;;;;;11.17;73.38;98010.81;5079908;28;20272;-92
2023/12/13 03:46:56;;;;;;;1.00;0.90;;;;;;;11.15;73.40;98017.19;5078595;28;20772;-92
2023/12/13 03:49:22;;;;;;;0.95;0.85;;;;;;;11.09;73.67;98015.94;5076717;28;20204;-91
2023/12/13 03:51:50;;;;;;;1.30;0.90;;;;;;;11.05;73.68;98006.69;5080247;28;20187;-91
2023/12/13 03:54:16;;;;;;;1.67;1.23;;;;;;;11.01;73.87;98015.81;5077613;28;20293;-91
2023/12/13 03:56:44;;;;;;;2.65;1.30;;;;;;;10.96;74.08;98010.13;5073274;28;20199;-91
2023/12/13 03:59:09;;;;;;;5.77;1.30;;;;;;;10.92;74.18;98006.97;5070762;28;20199;-91
2023/12/13 04:01:35;;;;;;;3.60;0.90;;;;;;;10.90;74.29;98010.72;5069317;28;20206;-91
2023/12/13 04:04:00;;;;;;;1.77;0.80;;;;;;;10.87;74.68;98013.63;5065200;28;20191;-91
2023/12/13 04:06:28;;;;;;;1.43;1.20;;;;;;;10.82;74.74;98009.59;5068836;28;20204;-91
2023/12/13 04:09:01;;;;;;;2.13;1.20;;;;;;;10.77;74.80;98009.19;5063457;28;20219;-91
2023/12/13 04:11:27;;;;;;;2.27;1.30;;;;;;;10.75;74.89;98016.38;5068494;28;20196;-91
2023/12/13 04:13:56;;;;;;;1.42;0.90;;;;;;;10.73;75.18;98018.31;5068356;28;20530;-92
2023/12/13 04:16:21;;;;;;;1.37;1.00;;;;;;;10.72;75.07;98024.53;5069712;28;20192;-91
2023/12/13 04:18:47;;;;;;;2.10;1.20;;;;;;;10.72;75.24;98021.06;5065255;28;20299;-91
2023/12/13 04:21:15;;;;;;;1.83;0.90;;;;;;;10.70;75.60;98002.00;5072217;28;20188;-90
2023/12/13 04:23:41;;;;;;;3.45;1.15;;;;;;;10.68;75.54;97996.88;5056925;28;20196;-92
2023/12/13 04:26:37;;;;;;;2.60;1.00;;;;;;;10.67;75.68;97992.59;5070196;28;20297;-91
2023/12/13 04:29:03;;;;;;;1.10;1.00;;;;;;;10.65;75.72;97988.47;5049142;28;20219;-91
2023/12/13 04:31:32;;;;;;;3.38;1.00;;;;;;;10.65;75.97;97986.66;5073349;28;20668;-91
2023/12/13 04:33:58;;;;;;;1.73;0.80;;;;;;;10.65;75.73;97984.03;5074145;28;20203;-91
2023/12/13 04:36:26;;;;;;;1.73;1.20;;;;;;;10.66;75.88;97987.47;5059108;28;20602;-92
2023/12/13 04:39:01;;;;;;;1.65;0.98;;;;;;;10.66;76.20;97976.97;5066056;28;20257;-92
2023/12/13 04:41:38;;;;;;;2.88;1.02;;;;;;;10.68;76.31;97980.31;5076517;28;20203;-92
2023/12/13 04:44:08;;;;;;;3.13;1.10;;;;;;;10.68;76.32;97972.44;5072140;28;20759;-92
2023/12/13 04:46:37;;;;;;;2.95;2.10;;;;;;;10.68;76.22;97970.63;5068221;28;20204;-92
2023/12/13 04:49:06;;;;;;;5.60;3.00;;;;;;;10.69;76.15;97974.91;5070629;28;20443;-92
2023/12/13 04:51:42;;;;;;;8.10;2.40;;;;;;;10.68;76.34;97968.00;5074334;28;20193;-92
2023/12/13 04:54:20;;;;;;;5.68;2.72;;;;;;;10.67;76.51;97957.66;5058305;28;20322;-92
2023/12/13 04:56:46;;;;;;;5.88;2.83;;;;;;;10.65;76.48;97951.69;5072697;28;20291;-92
2023/12/13 04:59:11;;;;;;;6.00;4.87;;;;;;;10.64;76.52;97953.50;5069289;28;20287;-92
2023/12/13 05:01:45;;;;;;;5.30;3.27;;;;;;;10.63;76.52;97951.81;5074974;28;20686;-93
2023/12/13 05:04:16;;;;;;;4.47;1.92;;;;;;;10.62;76.86;97958.06;5050861;28;20331;-92
2023/12/13 05:06:41;;;;;;;3.00;1.83;;;;;;;10.60;76.63;97952.09;5067101;28;20208;-91
2023/12/13 05:09:07;;;;;;;3.27;1.53;;;;;;;10.59;76.83;97953.09;5061879;28;20215;-91
2023/12/13 05:11:33;;;;;;;2.37;1.20;;;;;;;10.58;76.76;97962.72;5047606;28;20320;-92
2023/12/13 05:13:59;;;;;;;4.70;1.20;;;;;;;10.59;76.90;97959.16;5075795;28;20469;-91
2023/12/13 05:16:24;;;;;;;3.53;1.90;;;;;;;10.58;76.78;97956.66;5073702;28;20197;-92
2023/12/13 05:18:50;;;;;;;2.27;1.53;;;;;;;10.57;76.90;97955.00;5054359;28;20462;-92
2023/12/13 05:21:16;;;;;;;3.90;2.10;;;;;;;10.55;76.74;97957.75;5070453;28;20283;-91
2023/12/13 05:23:42;;;;;;;2.43;1.20;;;;;;;10.54;76.90;97955.28;5061329;28;20577;-92
2023/12/13 05:26:07;;;;;;;3.13;1.35;;;;;;;10.53;77.03;97949.22;5069089;28;20802;-92
2023/12/13 05:28:37;;;;;;;2.27;2.07;;;;;;;10.54;77.20;97950.03;5071895;28;20204;-92
2023/12/13 05:31:55;;;;;;;;;;;;;;;;;;;;;
2023/12/13 05:34:55;;;;;;;;;;;;;;;;;;;;;
2023/12/13 05:46:33;;;;;;;3.30;1.65;;;;;;;10.49;77.20;97933.88;4807334;29;20197;-93
2023/12/13 05:56:32;;;;;;;1.85;1.30;;;;;;;10.57;77.02;97923.50;5003988;28;20713;-76
2023/12/13 05:58:58;;;;;;;2.60;1.63;;;;;;;10.58;77.01;97915.47;5011616;28;20425;-76
2023/12/13 06:01:23;;;;;;;5.20;1.50;;;;;;;10.60;76.96;97920.59;5008644;28;20195;-77
2023/12/13 06:03:49;;;;;;;4.43;1.80;;;;;;;10.59;77.12;97917.16;5011684;28;20200;-79
2023/12/13 06:06:14;;;;;;;2.43;2.23;;;;;;;10.59;76.92;97914.53;5012557;28;20484;-80
2023/12/13 06:08:40;;;;;;;1.80;1.37;;;;;;;10.58;77.25;97915.47;5011938;28;20197;-79
2023/12/13 06:11:07;;;;;;;2.15;1.13;;;;;;;10.57;77.07;97918.25;5012857;28;20814;-80
2023/12/13 06:13:32;;;;;;;2.97;1.20;;;;;;;10.57;76.98;97910.38;5011195;28;20198;-78
2023/12/13 06:15:58;;;;;;;2.60;1.50;;;;;;;10.59;77.09;97911.91;5011804;28;20269;-80
2023/12/13 06:18:23;;;;;;;2.00;0.97;;;;;;;10.63;76.69;97920.31;5014379;28;20218;-77
2023/12/13 06:20:49;;;;;;;3.00;1.20;;;;;;;10.67;76.67;97910.38;5010823;28;20202;-78
2023/12/13 06:23:14;;;;;;;3.80;0.83;;;;;;;10.70;76.26;97910.94;5011238;28;20693;-79
2023/12/13 06:25:39;;;;;;;1.20;0.80;;;;;;;10.73;76.26;97908.00;5012111;28;20286;-78
2023/12/13 06:28:05;;;;;;;0.90;0.70;;;;;;;10.78;75.71;97900.53;5013279;28;20586;-78
2023/12/13 06:30:30;;;;;;;7.00;1.20;;;;;;;10.81;75.31;97909.94;5010695;28;20198;-78
2023/12/13 06:32:55;;;;;;;1.83;0.87;;;;;;;10.83;75.24;97900.97;5009078;28;20796;-79
2023/12/13 06:35:21;;;;;;;3.43;0.90;;;;;;;10.88;74.96;97897.88;5013085;28;20665;-78
2023/12/13 06:37:46;;;;;;;2.60;1.20;;;;;;;10.90;74.85;97905.63;5010371;28;20209;-79
2023/12/13 06:40:15;;;;;;;1.50;0.90;;;;;;;10.92;74.50;97904.53;5007599;28;20208;-80
2023/12/13 06:42:41;;;;;;;1.17;0.90;;;;;;;10.88;74.60;97904.94;5011110;28;20233;-78
2023/12/13 06:45:08;;;;;;;1.65;1.00;;;;;;;10.91;73.98;97892.38;5013441;28;20356;-79
2023/12/13 06:47:33;;;;;;;1.80;1.10;;;;;;;10.92;74.15;97890.56;5009374;28;20214;-79
2023/12/13 06:49:59;;;;;;;3.57;0.90;;;;;;;10.92;74.09;97903.69;5015166;28;20650;-79
2023/12/13 06:52:25;;;;;;;3.80;1.00;;;;;;;10.91;74.11;97894.16;5012665;28;20229;-79
2023/12/13 06:54:50;;;;;;;1.40;0.90;;;;;;;10.91;73.98;97904.66;5010066;28;20829;-80
2023/12/13 06:57:16;;;;;;;2.60;1.27;;;;;;;10.90;73.69;97903.84;5008613;28;20238;-79
2023/12/13 06:59:42;;;;;;;2.60;1.67;;;;;;;10.90;74.07;97897.75;5008541;28;20198;-80
2023/12/13 07:02:07;;;;;;;3.37;1.30;;;;;;;10.89;73.79;97904.00;5008229;28;20480;-78
2023/12/13 07:04:32;;;;;;;5.40;2.50;;;;;;;10.88;73.87;97905.75;5006873;28;20272;-80
2023/12/13 07:06:58;;;;;;;1.30;1.10;;;;;;;10.88;73.79;97908.38;5012014;28;20218;-78
2023/12/13 07:09:24;;;;;;;2.03;1.00;;;;;;;10.88;73.63;97905.75;5010291;28;20203;-79
2023/12/13 07:11:50;;;;;;;1.93;1.23;;;;;;;10.86;73.82;97905.09;5006619;28;20491;-80
2023/12/13 07:14:15;;;;;;;1.37;1.07;;;;;;;10.83;73.72;97903.59;5004859;28;20210;-79
2023/12/13 07:16:44;;;;;;;4.20;1.10;;;;;;;10.84;73.84;97905.22;5009405;28;20248;-80
2023/12/13 07:19:10;;;;;;;3.90;1.48;;;;;;;10.85;73.59;97917.41;5006897;28;20197;-80
2023/12/13 07:21:35;;;;;;;2.72;1.45;;;;;;;10.84;73.51;97902.59;4996179;28;20429;-79
2023/12/13 07:24:02;;;;;;;1.60;1.00;;;;;;;10.85;73.48;97906.91;5003562;28;20203;-78
2023/12/13 07:26:28;;;;;;;1.23;0.93;;;;;;;10.84;73.59;97915.72;5007879;28;20609;-78
2023/12/13 07:28:53;;;;;;;1.87;1.17;;;;;;;10.82;73.83;97901.09;5003926;28;20240;-80
2023/12/13 07:31:18;;;;;;;1.70;1.00;;;;;;;10.80;73.89;97914.38;5004569;28;20252;-80
2023/12/13 07:33:44;;;;;;;1.37;0.80;;;;;;;10.78;74.13;97904.97;5005652;28;20277;-79
2023/12/13 07:36:12;;;;;;;2.27;1.03;;;;;;;10.76;73.97;97910.34;5002214;28;20216;-79
2023/12/13 07:38:38;;;;;;;3.85;1.83;;;;;;;10.76;74.12;97912.97;5005504;28;20202;-80
2023/12/13 07:41:04;;;;;;;1.30;1.20;;;;;;;10.77;74.08;97913.81;5004265;28;20574;-79
2023/12/13 07:43:29;;;;;;;1.87;1.20;;;;;;;10.75;74.03;97916.59;5006434;28;20203;-79
2023/12/13 07:45:55;;;;;;;1.30;1.00;;;;;;;10.75;74.18;97908.72;5005981;28;20215;-78
2023/12/13 07:48:21;;;;;;;2.40;1.17;;;;;;;10.75;73.86;97908.72;5003429;28;20210;-78
2023/12/13 07:50:47;;;;;;;3.20;1.38;;;;;;;10.77;74.00;97905.94;5006039;28;20576;-80
2023/12/13 07:53:12;;;;;;;4.60;1.10;;;;;;;10.78;73.83;97900.53;5001602;28;20271;-78
2023/12/13 07:55:38;;;;;;;2.33;0.87;;;;;;;10.80;73.66;97898.63;5002805;28;20479;-78
2023/12/13 07:58:03;;;;;;;2.30;1.37;;;;;;;10.81;73.44;97908.13;5005833;28;20298;-78
2023/12/13 08:00:29;;;;;;;2.17;1.00;;;;;;;10.82;73.57;97901.09;5000761;28;20199;-77
2023/12/13 08:02:54;;;;;;;1.53;0.93;;;;;;;10.87;73.11;97908.56;5005153;28;20191;-80
2023/12/13 08:05:20;;;;;;;1.57;0.80;;;;;;;10.85;73.01;97911.31;5003351;28;20827;-80
2023/12/13 08:07:46;;;;;;;2.07;1.13;;;;;;;10.89;72.86;97914.50;5002688;28;20441;-80
2023/12/13 08:10:11;;;;;;;1.87;1.60;;;;;;;10.91;72.79;97913.38;4999879;28;20593;-80
2023/12/13 08:12:37;;;;;;;1.80;1.50;;;;;;;10.92;72.62;97906.34;5004300;28;20476;-78
2023/12/13 08:15:05;;;;;;;1.83;1.00;;;;;;;10.90;72.61;97908.25;5000937;28;20210;-80
2023/12/13 08:17:32;;;;;;;1.63;1.20;;;;;;;10.91;72.79;97909.91;5001698;28;20224;-78
2023/12/13 08:19:57;;;;;;;1.80;1.35;;;;;;;10.89;72.78;97901.38;5000806;28;20194;-80
2023/12/13 08:22:23;;;;;;;1.40;1.30;;;;;;;10.91;72.74;97905.50;5000731;28;20190;-80
2023/12/13 08:24:48;;;;;;;1.90;1.20;;;;;;;10.93;72.67;97908.81;5004832;28;20306;-78
2023/12/13 08:27:13;;;;;;;1.33;1.03;;;;;;;10.90;72.83;97908.25;5005980;28;20328;-80
2023/12/13 08:29:40;;;;;;;1.37;0.87;;;;;;;10.88;72.62;97911.00;5005112;28;20577;-79
2023/12/13 08:32:06;;;;;;;3.13;1.58;;;;;;;10.88;72.75;97911.00;5005978;28;20213;-78
2023/12/13 08:34:32;;;;;;;1.10;0.80;;;;;;;10.87;72.63;97908.56;5002529;28;20220;-78
2023/12/13 08:36:58;;;;;;;2.25;1.10;;;;;;;10.84;72.71;97907.84;5005259;28;20460;-78
2023/12/13 08:39:23;;;;;;;1.20;1.10;;;;;;;10.86;72.73;97915.59;5003722;28;20641;-79
2023/12/13 08:41:49;;;;;;;1.50;1.27;;;;;;;10.88;72.87;97910.19;5012600;28;20600;-78
2023/12/13 08:44:14;;;;;;;2.80;1.23;;;;;;;10.88;72.76;97923.31;5011637;28;20612;-79
2023/12/13 08:46:40;;;;;;;2.80;1.50;;;;;;;10.91;72.46;97920.41;5013819;28;20276;-78
2023/12/13 08:49:06;;;;;;;0.90;0.70;;;;;;;10.91;72.37;97926.53;5015264;28;20602;-79
2023/12/13 08:51:31;;;;;;;1.23;0.90;;;;;;;11.14;72.24;97915.69;5016055;28;20449;-78
2023/12/13 08:53:56;;;;;;;2.00;1.10;;;;;;;11.33;71.35;97917.41;5012892;28;20290;-80
2023/12/13 09:02:07;;;;;;;7.10;1.67;;;;;;;13.13;67.57;97911.31;4309711;26;20230;-78
2023/12/13 09:04:32;;;;;;;2.08;1.00;;;;;;;14.01;63.87;97911.06;5003539;28;20194;-77
2023/12/13 09:06:57;;;;;;;2.73;1.30;;;;;;;14.33;62.35;97908.50;4995957;28;20762;-77
2023/12/13 09:09:23;;;;;;;3.77;1.40;;;;;;;14.22;61.96;97908.00;5001023;28;20211;-77
2023/12/13 09:11:48;;;;;;;1.70;1.20;;;;;;;14.04;61.71;97908.09;4997665;28;20694;-77
2023/12/13 09:14:14;;;;;;;4.00;2.07;;;;;;;13.98;61.50;97906.13;4999587;28;20203;-77
2023/12/13 09:16:39;;;;;;;2.80;1.70;;;;;;;13.78;61.99;97910.84;4995667;28;20741;-77
2023/12/13 09:19:06;;;;;;;2.60;1.20;;;;;;;13.63;62.35;97910.63;5000396;28;20210;-77
2023/12/13 09:21:31;;;;;;;2.40;1.10;;;;;;;13.49;62.31;97902.31;4997220;28;20217;-77
2023/12/13 09:23:57;;;;;;;2.07;1.97;;;;;;;13.34;62.24;97903.91;4995442;28;20192;-77
2023/12/13 09:26:22;;;;;;;2.80;1.50;;;;;;;13.31;62.02;97903.38;4996714;28;20491;-77
2023/12/13 09:28:48;;;;;;;6.33;2.47;;;;;;;13.11;62.26;97911.47;4997838;28;20447;-77
2023/12/13 09:31:13;;;;;;;1.77;1.20;;;;;;;12.84;62.95;97902.72;4998024;28;20325;-77
2023/12/13 09:33:39;;;;;;;2.10;1.13;;;;;;;12.90;62.90;97906.53;4997051;28;20253;-77
2023/12/13 09:36:06;;;;;;;2.70;1.70;;;;;;;13.04;62.60;97895.47;4995521;28;20930;-77
2023/12/13 09:38:31;;;;;;;3.17;2.00;;;;;;;13.14;62.34;97894.50;4992528;28;20198;-77
2023/12/13 09:40:57;;;;;;;2.07;1.30;;;;;;;13.13;62.29;97904.25;4997014;28;20229;-77
2023/12/13 09:43:23;;;;;;;2.83;0.90;;;;;;;13.22;61.90;97902.47;4995045;28;20201;-77
2023/12/13 09:45:51;;;;;;;1.65;1.27;;;;;;;13.37;61.09;97908.84;4997126;28;20202;-77
2023/12/13 09:48:22;;;;;;;1.65;1.00;;;;;;;13.83;59.90;97904.09;4994801;28;20219;-77
2023/12/13 09:50:59;;;;;;;2.45;0.80;;;;;;;14.16;59.08;97909.47;4995404;28;20229;-77
2023/12/13 09:53:27;;;;;;;2.83;1.42;;;;;;;14.51;57.78;97903.06;4992460;28;20197;-77
2023/12/13 09:55:54;;;;;;;2.25;1.95;;;;;;;14.65;57.38;97903.44;4997651;28;20243;-77
2023/12/13 09:58:19;;;;;;;3.35;1.95;;;;;;;14.98;56.42;97902.41;4995411;28;20253;-78
2023/12/13 10:00:45;;;;;;;3.97;2.10;;;;;;;15.26;55.27;97902.88;4997670;28;20765;-77
2023/12/13 10:03:10;;;;;;;2.17;1.60;;;;;;;15.64;54.05;97911.03;4996671;28;20207;-77
2023/12/13 10:05:40;;;;;;;2.50;1.33;;;;;;;16.07;52.53;97919.47;4998187;28;20388;-77
2023/12/13 10:08:08;;;;;;;1.90;0.80;;;;;;;15.99;52.60;97911.56;4993747;28;20481;-77
2023/12/13 10:10:35;;;;;;;1.45;0.70;;;;;;;15.85;53.15;97917.56;4991194;28;21624;-77
2023/12/13 10:13:01;;;;;;;4.20;0.80;;;;;;;15.68;53.61;97922.09;4999355;28;20214;-77
2023/12/13 10:15:31;;;;;;;0.68;0.60;;;;;;;15.27;54.59;97909.00;4996766;28;20206;-77
2023/12/13 10:18:01;;;;;;;0.90;0.70;;;;;;;14.80;55.93;97921.13;4995895;28;20420;-77
2023/12/13 10:20:28;;;;;;;2.53;1.00;;;;;;;14.39;57.15;97920.22;4996693;28;20264;-77
2023/12/13 10:22:53;;;;;;;5.95;1.15;;;;;;;14.05;58.19;97920.34;4999466;28;20317;-78
2023/12/13 10:25:20;;;;;;;1.10;0.80;;;;;;;13.81;58.98;97913.16;4996941;28;20544;-77
2023/12/13 10:27:45;;;;;;;2.15;0.90;;;;;;;13.63;59.59;97908.78;4993306;28;20226;-77
2023/12/13 10:30:12;;;;;;;0.90;0.70;;;;;;;13.47;59.96;97914.84;4995498;28;20606;-77
2023/12/13 10:32:38;;;;;;;1.55;0.70;;;;;;;13.30;60.97;97905.19;4999844;28;20209;-77
2023/12/13 10:35:04;;;;;;;0.70;0.60;;;;;;;13.19;62.01;97906.25;4997751;28;20733;-76
2023/12/13 10:37:33;;;;;;;8.80;1.35;;;;;;;13.13;62.64;97906.06;4995447;28;20192;-77
2023/12/13 10:39:59;;;;;;;1.65;0.90;;;;;;;13.08;62.88;97911.78;4993912;28;20352;-77
2023/12/13 10:42:26;;;;;;;1.92;0.80;;;;;;;13.04;62.88;97908.63;4995268;28;20404;-77
2023/12/13 10:44:52;;;;;;;0.90;0.70;;;;;;;12.98;62.84;97903.97;4994341;28;20211;-77
2023/12/13 10:47:23;;;;;;;0.80;0.70;;;;;;;12.88;63.26;97913.81;4995673;28;20538;-77
2023/12/13 10:49:51;;;;;;;1.73;0.80;;;;;;;12.83;63.59;97911.63;4991799;28;20218;-77
2023/12/13 10:52:18;;;;;;;1.33;0.80;;;;;;;12.75;63.79;97911.56;5000825;28;20214;-76
2023/12/13 10:54:45;;;;;;;1.73;0.85;;;;;;;12.69;64.06;97909.53;5000031;28;20199;-76
2023/12/13 10:57:12;;;;;;;1.40;0.85;;;;;;;12.62;64.45;97904.03;5001587;28;21002;-77
2023/12/13 10:59:41;;;;;;;2.20;1.00;;;;;;;12.57;64.65;97903.66;4997874;28;20769;-76
2023/12/13 11:02:14;;;;;;;1.05;0.80;;;;;;;12.55;64.84;97897.72;4980985;28;20244;-76
2023/12/13 11:04:43;;;;;;;1.55;0.70;;;;;;;12.54;64.88;97885.53;4975847;28;20253;-77
2023/12/13 11:07:08;;;;;;;1.38;0.80;;;;;;;12.63;64.84;97889.88;4977156;28;20269;-77
2023/12/13 11:09:34;;;;;;;1.73;0.90;;;;;;;12.73;64.97;97888.97;4977406;28;20203;-77
2023/12/13 11:12:09;;;;;;;0.70;0.60;;;;;;;12.86;64.67;97881.50;4976293;28;20465;-77
2023/12/13 11:14:35;;;;;;;1.17;0.70;;;;;;;12.90;64.21;97882.00;4977048;28;20187;-78
2023/12/13 11:17:00;;;;;;;0.90;0.60;;;;;;;12.98;63.89;97876.78;4977169;28;20230;-77
2023/12/13 11:19:27;;;;;;;1.30;0.63;;;;;;;12.98;63.49;97869.69;4976290;28;20347;-77
2023/12/13 11:21:56;;;;;;;0.90;0.77;;;;;;;12.96;63.42;97870.84;4978509;28;20488;-77
2023/12/13 11:24:26;;;;;;;0.80;0.80;;;;;;;12.95;63.68;97874.47;4976663;28;20561;-77
2023/12/13 11:26:53;;;;;;;1.80;0.80;;;;;;;12.99;63.38;97860.84;4976986;28;20268;-77
2023/12/13 11:29:37;;;;;;;0.80;0.77;;;;;;;13.00;62.71;97869.56;4974959;28;20208;-77
2023/12/13 11:32:04;;;;;;;1.05;0.93;;;;;;;12.98;62.85;97861.78;4971950;28;21258;-77
2023/12/13 11:34:35;;;;;;;2.78;0.90;;;;;;;12.88;62.74;97857.63;4974932;28;20622;-76
2023/12/13 11:37:02;;;;;;;2.25;1.00;;;;;;;12.80;62.91;97842.59;4977525;28;20676;-77
2023/12/13 11:39:29;;;;;;;0.80;0.60;;;;;;;12.80;63.01;97845.25;4974027;28;20695;-77
2023/12/13 11:41:54;;;;;;;1.25;0.90;;;;;;;12.82;62.61;97851.16;4969770;28;20618;-77
2023/12/13 11:44:20;;;;;;;1.80;0.70;;;;;;;12.80;62.54;97847.88;4973351;28;20203;-77
2023/12/13 11:46:56;;;;;;;0.80;0.60;;;;;;;12.74;61.83;97848.47;4974209;28;20261;-77
2023/12/13 11:49:22;;;;;;;0.93;0.80;;;;;;;12.68;61.90;97860.44;4974689;28;20250;-76
2023/12/13 11:51:48;;;;;;;0.97;0.87;;;;;;;12.61;62.07;97860.25;4975640;28;20799;-76
2023/12/13 11:54:13;;;;;;;2.70;2.07;;;;;;;12.56;62.27;97859.06;4971112;28;20546;-76
2023/12/13 11:56:43;;;;;;;3.03;1.30;;;;;;;12.51;62.72;97861.31;4976244;28;20777;-77